createdAt,value
2022-08-11T00:01:59.795Z,77.30
2022-08-11T00:04:27.987Z,77.37
2022-08-11T00:06:54.877Z,77.44
2022-08-11T00:09:22.507Z,78.07
2022-08-11T00:11:51.124Z,78.04
2022-08-11T00:14:25.771Z,78.46
2022-08-11T00:17:06.391Z,78.71
2022-08-11T00:20:15.435Z,79.64
2022-08-11T00:22:22.541Z,80.00
2022-08-11T00:24:53.333Z,80.55
2022-08-11T00:27:31.328Z,80.48
2022-08-11T00:29:58.184Z,80.58
2022-08-11T00:32:25.123Z,80.69
2022-08-11T00:34:52.170Z,80.70
2022-08-11T00:37:39.582Z,80.43
2022-08-11T00:40:15.357Z,80.61
2022-08-11T00:42:55.067Z,80.62
2022-08-11T00:45:36.078Z,80.71
2022-08-11T00:48:21.302Z,80.76
2022-08-11T00:51:06.861Z,80.54
2022-08-11T00:53:59.745Z,80.70
2022-08-11T00:56:44.853Z,80.82
2022-08-11T00:59:35.465Z,80.81
2022-08-11T01:02:12.442Z,80.65
2022-08-11T01:04:57.908Z,80.40
2022-08-11T01:08:02.600Z,80.25
2022-08-11T01:10:53.269Z,80.16
2022-08-11T01:13:42.925Z,80.16
2022-08-11T01:16:48.321Z,80.33
2022-08-11T01:19:34.963Z,79.81
2022-08-11T01:22:40.382Z,80.02
2022-08-11T01:25:25.827Z,79.54
2022-08-11T01:28:10.899Z,80.44
2022-08-11T01:31:06.177Z,80.34
2022-08-11T01:33:51.516Z,80.61
2022-08-11T01:36:47.395Z,80.68
2022-08-11T01:39:46.499Z,80.45
2022-08-11T01:42:51.866Z,80.29
2022-08-11T01:45:32.165Z,80.38
2022-08-11T01:48:17.812Z,80.78
2022-08-11T01:51:20.185Z,81.29
2022-08-11T01:54:01.038Z,80.99
2022-08-11T01:56:46.742Z,80.97
2022-08-11T01:59:36.596Z,80.79
2022-08-11T02:02:21.317Z,80.81
2022-08-11T02:05:03.299Z,80.55
2022-08-11T02:07:38.978Z,80.96
2022-08-11T02:10:50.664Z,81.11
2022-08-11T02:13:36.794Z,81.38
2022-08-11T02:16:10.610Z,81.85
2022-08-11T02:18:59.124Z,81.70
2022-08-11T02:21:50.454Z,81.90
2022-08-11T02:24:34.325Z,81.90
2022-08-11T02:27:05.329Z,82.01
2022-08-11T02:30:08.706Z,81.53
2022-08-11T02:33:23.303Z,81.88
2022-08-11T02:36:15.981Z,81.96
2022-08-11T02:38:59.482Z,81.88
2022-08-11T02:41:53.917Z,81.80
2022-08-11T02:44:39.241Z,81.67
2022-08-11T02:47:18.172Z,81.60
2022-08-11T02:50:00.092Z,81.80
2022-08-11T02:52:52.922Z,81.97
2022-08-11T02:55:56.855Z,82.01
2022-08-11T02:59:07.221Z,81.90
2022-08-11T03:01:41.554Z,81.94
2022-08-11T03:04:12.746Z,82.04
2022-08-11T03:06:49.617Z,81.87
2022-08-11T03:09:25.185Z,82.07
2022-08-11T03:12:24.630Z,82.14
2022-08-11T03:16:08.613Z,81.84
2022-08-11T03:18:42.983Z,82.25
2022-08-11T03:21:17.043Z,82.39
2022-08-11T03:24:03.524Z,82.30
2022-08-11T03:26:39.932Z,82.24
2022-08-11T03:29:08.679Z,82.34
2022-08-11T03:31:42.472Z,82.34
2022-08-11T03:34:16.678Z,82.07
2022-08-11T03:37:16.190Z,82.12
2022-08-11T03:39:57.953Z,81.89
2022-08-11T03:42:37.159Z,81.76
2022-08-11T03:45:20.000Z,81.58
2022-08-11T03:48:05.398Z,81.54
2022-08-11T03:50:55.029Z,81.68
2022-08-11T03:53:41.105Z,81.91
2022-08-11T03:56:20.426Z,82.09
2022-08-11T03:59:06.016Z,82.21
2022-08-11T04:01:53.263Z,82.30
2022-08-11T04:04:51.309Z,82.37
2022-08-11T04:07:41.926Z,82.40
2022-08-11T04:10:29.078Z,82.17
2022-08-11T04:13:09.755Z,82.07
2022-08-11T04:16:12.891Z,81.59
2022-08-11T04:18:58.791Z,81.57
2022-08-11T04:22:00.867Z,81.59
2022-08-11T04:24:50.406Z,81.48
2022-08-11T04:27:36.972Z,81.38
2022-08-11T04:30:15.047Z,80.56
2022-08-11T04:33:19.419Z,80.42
2022-08-11T04:36:11.783Z,79.96
2022-08-11T04:38:46.772Z,79.97
2022-08-11T04:41:33.294Z,79.73
2022-08-11T04:44:19.819Z,79.65
2022-08-11T04:47:08.202Z,79.46
2022-08-11T04:50:14.801Z,79.22
2022-08-11T04:53:36.078Z,79.06
2022-08-11T04:56:24.334Z,78.67
2022-08-11T04:59:39.497Z,78.25
2022-08-11T05:02:36.102Z,77.87
2022-08-11T05:05:31.917Z,77.97
2022-08-11T05:08:31.794Z,78.50
2022-08-11T05:11:17.417Z,78.61
2022-08-11T05:14:06.892Z,77.89
2022-08-11T05:17:21.504Z,77.83
2022-08-11T05:20:07.655Z,76.70
2022-08-11T05:22:53.779Z,76.07
2022-08-11T05:26:43.865Z,76.55
2022-08-11T05:29:19.524Z,77.29
2022-08-11T05:32:10.377Z,77.73
2022-08-11T05:34:56.032Z,77.94
2022-08-11T05:37:27.585Z,77.98
2022-08-11T05:40:19.733Z,77.44
2022-08-11T05:43:09.467Z,77.28
2022-08-11T05:46:03.859Z,77.81
2022-08-11T05:48:55.099Z,78.61
2022-08-11T05:51:53.644Z,78.72
2022-08-11T05:54:41.322Z,79.01
2022-08-11T05:57:09.061Z,79.45
2022-08-11T05:59:36.482Z,79.31
2022-08-11T06:02:04.898Z,79.33
2022-08-11T06:04:32.369Z,79.27
2022-08-11T06:07:05.861Z,79.74
2022-08-11T06:09:58.954Z,79.00
2022-08-11T06:12:35.540Z,78.84
2022-08-11T06:15:06.040Z,79.74
2022-08-11T06:17:38.595Z,79.21
2022-08-11T06:20:13.279Z,79.41
2022-08-11T06:22:42.003Z,80.01
2022-08-11T06:25:10.387Z,79.73
2022-08-11T06:27:38.435Z,79.35
2022-08-11T06:30:15.871Z,78.90
2022-08-11T06:32:45.063Z,78.68
2022-08-11T06:35:50.426Z,78.61
2022-08-11T06:38:37.625Z,78.55
2022-08-11T06:41:26.547Z,78.19
2022-08-11T06:44:05.187Z,76.50
2022-08-11T06:46:37.701Z,76.21
2022-08-11T06:49:06.024Z,74.99
2022-08-11T06:51:35.483Z,75.04
2022-08-11T06:54:05.167Z,73.87
2022-08-11T06:57:06.673Z,74.06
2022-08-11T07:00:00.616Z,72.91
2022-08-11T07:02:31.399Z,72.10
2022-08-11T07:05:04.303Z,70.31
2022-08-11T07:08:34.067Z,70.59
2022-08-11T07:11:38.753Z,69.68
2022-08-11T07:14:45.334Z,69.08
2022-08-11T07:17:49.881Z,68.53
2022-08-11T07:22:00.601Z,68.09
2022-08-11T07:24:19.398Z,66.15
2022-08-11T07:27:22.360Z,65.20
2022-08-11T07:29:51.380Z,65.70
2022-08-11T07:32:31.955Z,66.44
2022-08-11T07:35:17.966Z,63.17
2022-08-11T07:37:48.030Z,63.13
2022-08-11T07:40:16.224Z,62.12
2022-08-11T07:42:46.818Z,60.83
2022-08-11T07:45:32.593Z,58.56
2022-08-11T07:48:18.781Z,60.25
2022-08-11T07:51:04.311Z,58.55
2022-08-11T07:53:34.403Z,56.96
2022-08-11T07:56:09.482Z,56.92
2022-08-11T07:59:07.536Z,56.95
2022-08-11T08:01:53.580Z,57.91
2022-08-11T08:04:40.135Z,56.56
2022-08-11T08:07:29.608Z,56.89
2022-08-11T08:10:16.328Z,57.07
2022-08-11T08:13:01.829Z,56.57
2022-08-11T08:15:47.303Z,56.00
2022-08-11T08:18:25.993Z,55.34
2022-08-11T08:20:55.311Z,54.19
2022-08-11T08:23:35.328Z,54.63
2022-08-11T08:26:04.778Z,54.68
2022-08-11T08:28:35.581Z,54.20
2022-08-11T08:31:07.391Z,53.21
2022-08-11T08:33:35.344Z,53.58
2022-08-11T08:36:15.001Z,52.59
2022-08-11T08:38:43.777Z,51.40
2022-08-11T08:41:13.415Z,51.93
2022-08-11T08:43:48.947Z,51.11
2022-08-11T08:46:17.920Z,51.60
2022-08-11T08:48:46.746Z,51.81
2022-08-11T08:51:57.014Z,48.89
2022-08-11T08:54:21.560Z,50.83
2022-08-11T08:56:52.570Z,50.29
2022-08-11T08:59:21.929Z,48.98
2022-08-11T09:01:56.475Z,50.02
2022-08-11T09:04:23.832Z,50.93
2022-08-11T09:06:52.424Z,48.00
2022-08-11T09:09:23.416Z,48.00
2022-08-11T09:11:50.530Z,46.47
2022-08-11T09:14:50.091Z,46.64
2022-08-11T09:17:20.893Z,46.25
2022-08-11T09:19:52.177Z,46.23
2022-08-11T09:22:42.768Z,44.51
2022-08-11T09:25:28.573Z,44.50
2022-08-11T09:27:56.951Z,44.85
2022-08-11T09:30:28.201Z,46.67
2022-08-11T09:33:00.648Z,47.24
2022-08-11T09:35:28.324Z,45.76
2022-08-11T09:38:14.863Z,45.35
2022-08-11T09:40:44.957Z,45.25
2022-08-11T09:43:30.851Z,45.07
2022-08-11T09:45:59.054Z,44.65
2022-08-11T09:48:26.640Z,43.47
2022-08-11T09:50:55.691Z,43.17
2022-08-11T09:53:36.493Z,44.13
2022-08-11T09:56:37.344Z,42.01
2022-08-11T09:59:05.982Z,40.68
2022-08-11T10:01:41.953Z,42.47
2022-08-11T10:04:19.622Z,43.11
2022-08-11T10:07:10.865Z,43.94
2022-08-11T10:09:46.155Z,43.35
2022-08-11T10:12:33.498Z,42.67
2022-08-11T10:15:22.400Z,41.59
2022-08-11T10:18:11.965Z,42.47
2022-08-11T10:20:39.999Z,41.35
2022-08-11T10:23:27.654Z,41.27
2022-08-11T10:26:13.888Z,40.10
2022-08-11T10:29:02.559Z,38.63
2022-08-11T10:31:56.901Z,38.75
2022-08-11T10:34:25.166Z,39.99
2022-08-11T10:36:55.889Z,38.84
2022-08-11T10:39:23.402Z,37.12
2022-08-11T10:42:12.378Z,37.85
2022-08-11T10:44:45.925Z,39.11
2022-08-11T10:47:32.279Z,38.43
2022-08-11T10:50:18.343Z,38.48
2022-08-11T10:53:06.390Z,38.57
2022-08-11T10:55:52.400Z,38.33
2022-08-11T10:58:38.255Z,36.93
2022-08-11T11:01:05.601Z,36.03
2022-08-11T11:03:36.192Z,34.53
2022-08-11T11:06:31.047Z,34.42
2022-08-11T11:09:13.303Z,33.98
2022-08-11T11:12:02.971Z,33.67
2022-08-11T11:14:56.398Z,35.47
2022-08-11T11:17:57.894Z,35.06
2022-08-11T11:20:34.655Z,35.19
2022-08-11T11:23:11.972Z,34.49
2022-08-11T11:26:06.819Z,34.24
2022-08-11T11:28:52.284Z,34.95
2022-08-11T11:31:37.985Z,35.03
2022-08-11T11:34:23.545Z,34.01
2022-08-11T11:36:51.979Z,33.85
2022-08-11T11:39:23.502Z,33.61
2022-08-11T11:41:52.205Z,33.96
2022-08-11T11:44:20.211Z,34.20
2022-08-11T11:46:47.783Z,31.96
2022-08-11T11:49:17.461Z,32.88
2022-08-11T11:51:50.233Z,33.33
2022-08-11T11:54:18.176Z,32.94
2022-08-11T11:56:45.788Z,33.40
2022-08-11T11:59:32.813Z,31.83
2022-08-11T12:02:00.064Z,31.79
2022-08-11T12:04:28.181Z,31.87
2022-08-11T12:07:15.895Z,31.13
2022-08-11T12:09:43.249Z,30.10
2022-08-11T12:12:29.170Z,30.36
2022-08-11T12:14:56.508Z,29.11
2022-08-11T12:17:24.176Z,28.04
2022-08-11T12:19:52.327Z,28.85
2022-08-11T12:22:38.574Z,28.71
2022-08-11T12:25:42.736Z,26.84
2022-08-11T12:28:29.085Z,26.72
2022-08-11T12:30:56.358Z,26.59
2022-08-11T12:33:24.044Z,26.64
2022-08-11T12:36:00.928Z,26.37
2022-08-11T12:38:29.618Z,27.14
2022-08-11T12:41:16.633Z,28.92
2022-08-11T12:44:04.632Z,30.22
2022-08-11T12:46:39.155Z,30.76
2022-08-11T12:49:31.147Z,30.51
2022-08-11T12:52:13.965Z,30.33
2022-08-11T12:55:00.154Z,30.78
2022-08-11T12:58:04.077Z,32.52
2022-08-11T13:00:50.059Z,32.47
2022-08-11T13:03:38.306Z,31.45
2022-08-11T13:06:05.829Z,29.62
2022-08-11T13:08:37.190Z,28.38
2022-08-11T13:11:23.190Z,28.25
2022-08-11T13:13:54.099Z,28.42
2022-08-11T13:16:26.904Z,28.14
2022-08-11T13:18:54.021Z,28.77
2022-08-11T13:21:21.672Z,29.90
2022-08-11T13:24:01.065Z,30.02
2022-08-11T13:26:47.900Z,28.88
2022-08-11T13:29:21.066Z,29.06
2022-08-11T13:31:48.685Z,28.14
2022-08-11T13:34:17.013Z,26.70
2022-08-11T13:36:44.290Z,26.24
2022-08-11T13:39:11.914Z,26.08
2022-08-11T13:41:41.847Z,26.21
2022-08-11T13:44:10.023Z,25.54
2022-08-11T13:46:37.240Z,25.16
2022-08-11T13:49:05.065Z,25.34
2022-08-11T13:51:35.884Z,25.91
2022-08-11T13:54:05.087Z,25.74
2022-08-11T13:56:32.829Z,25.00
2022-08-11T13:59:01.366Z,24.13
2022-08-11T14:02:19.595Z,24.42
2022-08-11T14:04:32.460Z,23.55
2022-08-11T14:07:00.968Z,24.38
2022-08-11T14:09:29.320Z,23.54
2022-08-11T14:12:21.427Z,24.51
2022-08-11T14:14:52.625Z,23.85
2022-08-11T14:17:35.836Z,22.78
2022-08-11T14:20:39.130Z,22.60
2022-08-11T14:22:57.749Z,22.23
2022-08-11T14:26:00.590Z,22.57
2022-08-11T14:28:30.042Z,22.73
2022-08-11T14:31:03.161Z,23.06
2022-08-11T14:33:59.282Z,22.77
2022-08-11T14:36:21.178Z,22.85
2022-08-11T14:38:48.382Z,22.32
2022-08-11T14:41:34.257Z,22.08
2022-08-11T14:44:20.711Z,22.50
2022-08-11T14:47:23.831Z,22.62
2022-08-11T14:50:09.356Z,22.52
2022-08-11T14:52:40.035Z,22.69
2022-08-11T14:55:26.511Z,23.27
2022-08-11T14:57:56.504Z,22.91
2022-08-11T15:00:24.085Z,22.17
2022-08-11T15:03:09.941Z,22.52
2022-08-11T15:05:41.766Z,21.76
2022-08-11T15:08:46.147Z,21.84
2022-08-11T15:11:37.366Z,22.45
2022-08-11T15:14:06.326Z,22.52
2022-08-11T15:16:51.984Z,22.44
2022-08-11T15:19:21.651Z,22.29
2022-08-11T15:22:08.041Z,22.14
2022-08-11T15:24:36.798Z,22.68
2022-08-11T15:27:24.135Z,22.97
2022-08-11T15:30:10.417Z,23.31
2022-08-11T15:33:07.337Z,24.24
2022-08-11T15:35:55.418Z,25.18
2022-08-11T15:38:23.213Z,25.90
2022-08-11T15:41:10.185Z,26.55
2022-08-11T15:44:04.821Z,26.89
2022-08-11T15:46:58.037Z,26.99
2022-08-11T15:50:11.735Z,27.51
2022-08-11T15:52:19.794Z,30.93
2022-08-11T15:54:47.886Z,32.53
2022-08-11T15:57:39.447Z,32.52
2022-08-11T16:00:26.397Z,33.26
2022-08-11T16:03:15.509Z,33.89
2022-08-11T16:05:45.805Z,34.08
2022-08-11T16:08:15.761Z,33.33
2022-08-11T16:10:44.841Z,33.46
2022-08-11T16:13:33.215Z,33.54
2022-08-11T16:16:16.774Z,33.48
2022-08-11T16:18:52.091Z,32.87
2022-08-11T16:21:33.515Z,33.13
2022-08-11T16:24:05.268Z,32.03
2022-08-11T16:27:11.528Z,33.01
2022-08-11T16:29:21.886Z,32.90
2022-08-11T16:32:11.656Z,32.51
2022-08-11T16:34:58.221Z,29.54
2022-08-11T16:37:44.174Z,26.29
2022-08-11T16:40:11.989Z,26.67
2022-08-11T16:43:05.331Z,25.88
2022-08-11T16:45:56.547Z,25.26
2022-08-11T16:48:36.175Z,25.10
2022-08-11T16:51:05.866Z,24.45
2022-08-11T16:54:00.068Z,23.87
2022-08-11T16:56:21.303Z,24.44
2022-08-11T16:59:10.854Z,24.31
2022-08-11T17:01:37.991Z,24.87
2022-08-11T17:04:59.045Z,25.38
2022-08-11T17:07:45.637Z,26.60
2022-08-11T17:10:52.409Z,28.10
2022-08-11T17:13:24.047Z,28.82
2022-08-11T17:16:10.170Z,29.43
2022-08-11T17:18:44.773Z,30.23
2022-08-11T17:21:14.386Z,30.18
2022-08-11T17:23:50.497Z,30.22
2022-08-11T17:26:18.898Z,31.15
2022-08-11T17:28:50.072Z,31.13
2022-08-11T17:31:36.659Z,31.58
2022-08-11T17:34:23.364Z,32.39
2022-08-11T17:36:51.449Z,32.77
2022-08-11T17:39:19.917Z,33.08
2022-08-11T17:42:05.285Z,33.54
2022-08-11T17:44:51.849Z,34.03
2022-08-11T17:47:38.903Z,34.44
2022-08-11T17:50:09.506Z,34.91
2022-08-11T17:53:04.118Z,34.85
2022-08-11T17:55:52.312Z,34.88
2022-08-11T17:58:39.510Z,35.20
2022-08-11T18:01:09.161Z,35.70
2022-08-11T18:03:40.052Z,35.56
2022-08-11T18:06:12.526Z,35.80
2022-08-11T18:09:09.097Z,36.26
2022-08-11T18:12:07.406Z,36.49
2022-08-11T18:14:57.921Z,36.67
2022-08-11T18:17:43.349Z,36.92
2022-08-11T18:20:29.051Z,36.86
2022-08-11T18:23:15.050Z,37.17
2022-08-11T18:26:02.890Z,36.73
2022-08-11T18:28:54.559Z,37.16
2022-08-11T18:31:40.469Z,36.86
2022-08-11T18:34:29.204Z,37.11
2022-08-11T18:37:24.793Z,37.16
2022-08-11T18:40:16.844Z,37.10
2022-08-11T18:43:03.456Z,37.43
2022-08-11T18:45:51.295Z,37.51
2022-08-11T18:48:53.905Z,37.76
2022-08-11T18:51:40.866Z,38.08
2022-08-11T18:54:27.538Z,38.29
2022-08-11T18:57:15.100Z,38.04
2022-08-11T19:00:02.672Z,38.26
2022-08-11T19:02:50.264Z,38.76
2022-08-11T19:06:32.489Z,38.94
2022-08-11T19:08:53.983Z,39.12
2022-08-11T19:11:42.827Z,39.13
2022-08-11T19:14:31.949Z,39.26
2022-08-11T19:17:44.491Z,39.40
2022-08-11T19:20:29.293Z,39.52
2022-08-11T19:23:15.703Z,39.72
2022-08-11T19:26:02.368Z,39.95
2022-08-11T19:28:47.774Z,40.28
2022-08-11T19:31:33.593Z,40.51
2022-08-11T19:34:19.015Z,40.45
2022-08-11T19:37:04.825Z,40.42
2022-08-11T19:39:51.016Z,40.46
2022-08-11T19:42:36.582Z,40.43
2022-08-11T19:45:23.047Z,40.70
2022-08-11T19:48:30.582Z,40.73
2022-08-11T19:51:15.248Z,40.93
2022-08-11T19:54:01.923Z,40.98
2022-08-11T19:56:48.121Z,41.42
2022-08-11T19:59:38.229Z,41.54
2022-08-11T20:02:24.468Z,41.56
2022-08-11T20:05:09.999Z,41.68
2022-08-11T20:07:55.915Z,41.62
2022-08-11T20:10:41.594Z,41.55
2022-08-11T20:13:28.139Z,41.65
2022-08-11T20:16:14.155Z,41.58
2022-08-11T20:19:00.853Z,41.65
2022-08-11T20:21:47.367Z,41.75
2022-08-11T20:24:34.070Z,41.59
2022-08-11T20:27:24.575Z,41.78
2022-08-11T20:30:10.947Z,41.85
2022-08-11T20:32:57.958Z,41.99
2022-08-11T20:35:44.339Z,42.01
2022-08-11T20:38:30.655Z,42.36
2022-08-11T20:41:16.677Z,42.48
2022-08-11T20:44:06.181Z,42.74
2022-08-11T20:46:55.309Z,43.31
2022-08-11T20:49:47.857Z,43.32
2022-08-11T20:52:38.786Z,43.47
2022-08-11T20:55:51.275Z,43.69
2022-08-11T21:01:41.137Z,43.65
2022-08-11T21:04:27.608Z,43.77
2022-08-11T21:07:23.606Z,43.82
2022-08-11T21:10:23.133Z,43.90
2022-08-11T21:13:25.770Z,44.04
2022-08-11T21:16:25.139Z,44.22
2022-08-11T21:19:14.150Z,44.20
2022-08-11T21:22:00.214Z,44.47
2022-08-11T21:24:48.820Z,45.08
2022-08-11T21:27:37.081Z,45.40
2022-08-11T21:30:23.118Z,45.39
2022-08-11T21:33:09.283Z,45.60
2022-08-11T21:35:55.206Z,46.11
2022-08-11T21:38:41.219Z,46.06
2022-08-11T21:41:27.157Z,46.06
2022-08-11T21:44:13.143Z,46.29
2022-08-11T21:46:59.635Z,48.45
2022-08-11T21:49:45.566Z,49.94
2022-08-11T21:52:31.206Z,49.43
2022-08-11T21:55:17.060Z,49.40
2022-08-11T21:58:02.717Z,49.21
2022-08-11T22:00:48.206Z,49.68
2022-08-11T22:03:34.453Z,49.80
2022-08-11T22:06:35.465Z,49.96
2022-08-11T22:09:20.954Z,50.29
2022-08-11T22:12:29.459Z,50.31
2022-08-11T22:15:12.609Z,50.51
2022-08-11T22:17:58.392Z,51.06
2022-08-11T22:20:45.335Z,51.25
2022-08-11T22:23:36.090Z,51.14
2022-08-11T22:26:22.437Z,51.70
2022-08-11T22:29:08.651Z,51.75
2022-08-11T22:31:55.187Z,51.73
2022-08-11T22:34:52.699Z,52.05
2022-08-11T22:37:40.216Z,52.08
2022-08-11T22:40:26.623Z,52.10
2022-08-11T22:43:11.914Z,51.90
2022-08-11T22:45:57.287Z,51.92
2022-08-11T22:48:44.637Z,51.87
2022-08-11T22:51:31.553Z,52.07
2022-08-11T22:54:18.265Z,52.47
2022-08-11T22:57:03.794Z,52.52
2022-08-11T22:59:50.032Z,53.16
2022-08-11T23:02:35.095Z,53.86
2022-08-11T23:05:20.638Z,53.14
2022-08-11T23:08:06.697Z,53.08
2022-08-11T23:10:52.700Z,52.67
2022-08-11T23:13:39.034Z,52.76
2022-08-11T23:16:25.070Z,53.05
2022-08-11T23:19:10.601Z,52.91
2022-08-11T23:21:56.048Z,52.53
2022-08-11T23:24:43.317Z,52.70
2022-08-11T23:27:29.461Z,52.72
2022-08-11T23:30:17.117Z,54.00
2022-08-11T23:33:05.821Z,55.24
2022-08-11T23:35:55.401Z,56.80
2022-08-11T23:38:42.205Z,57.65
2022-08-11T23:41:27.669Z,58.68
2022-08-11T23:44:13.103Z,59.05
2022-08-11T23:46:59.244Z,59.57
2022-08-11T23:49:44.974Z,59.74
2022-08-11T23:52:30.901Z,60.03
2022-08-11T23:55:16.604Z,60.34
2022-08-11T23:58:02.105Z,60.33
